sensor_id;sensor_type;location;lat;lon;timestamp;temperature;humidity
6260;DHT22;3163;51.516;4.000;2023-01-29T00:02:18;7.60;99.90
6260;DHT22;3163;51.516;4.000;2023-01-29T00:04:44;7.60;99.90
6260;DHT22;3163;51.516;4.000;2023-01-29T00:07:09;7.70;99.90
6260;DHT22;3163;51.516;4.000;2023-01-29T00:09:35;7.70;99.90
6260;DHT22;3163;51.516;4.000;2023-01-29T00:12:01;7.40;99.90
6260;DHT22;3163;51.516;4.000;2023-01-29T00:14:26;7.60;99.90
6260;DHT22;3163;51.516;4.000;2023-01-29T00:16:52;7.60;99.90
6260;DHT22;3163;51.516;4.000;2023-01-29T00:19:18;7.60;99.90
6260;DHT22;3163;51.516;4.000;2023-01-29T00:21:44;7.60;99.90
6260;DHT22;3163;51.516;4.000;2023-01-29T00:24:10;7.60;99.90
6260;DHT22;3163;51.516;4.000;2023-01-29T00:26:36;7.60;99.90
6260;DHT22;3163;51.516;4.000;2023-01-29T00:29:04;7.70;99.90
6260;DHT22;3163;51.516;4.000;2023-01-29T00:31:29;7.70;99.90
6260;DHT22;3163;51.516;4.000;2023-01-29T00:33:56;7.80;99.90
6260;DHT22;3163;51.516;4.000;2023-01-29T00:36:22;7.80;99.90
6260;DHT22;3163;51.516;4.000;2023-01-29T00:38:56;7.60;99.90
6260;DHT22;3163;51.516;4.000;2023-01-29T00:41:31;7.70;99.90
6260;DHT22;3163;51.516;4.000;2023-01-29T00:44:16;7.70;99.90
6260;DHT22;3163;51.516;4.000;2023-01-29T00:47:01;7.60;99.90
6260;DHT22;3163;51.516;4.000;2023-01-29T00:49:27;7.60;99.90
6260;DHT22;3163;51.516;4.000;2023-01-29T00:51:54;7.70;99.90
6260;DHT22;3163;51.516;4.000;2023-01-29T00:54:38;7.70;99.90
6260;DHT22;3163;51.516;4.000;2023-01-29T00:57:04;7.70;99.90
6260;DHT22;3163;51.516;4.000;2023-01-29T00:59:30;7.60;99.90
6260;DHT22;3163;51.516;4.000;2023-01-29T01:01:55;7.70;99.90
6260;DHT22;3163;51.516;4.000;2023-01-29T01:04:40;7.70;99.90
6260;DHT22;3163;51.516;4.000;2023-01-29T01:07:06;7.70;99.90
6260;DHT22;3163;51.516;4.000;2023-01-29T01:09:34;7.70;99.90
6260;DHT22;3163;51.516;4.000;2023-01-29T01:12:18;7.70;99.90
6260;DHT22;3163;51.516;4.000;2023-01-29T01:14:44;7.60;99.90
6260;DHT22;3163;51.516;4.000;2023-01-29T01:17:10;7.60;99.90
6260;DHT22;3163;51.516;4.000;2023-01-29T01:19:36;7.70;99.90
6260;DHT22;3163;51.516;4.000;2023-01-29T01:22:01;7.60;99.90
6260;DHT22;3163;51.516;4.000;2023-01-29T01:24:29;7.60;99.90
6260;DHT22;3163;51.516;4.000;2023-01-29T01:26:54;7.60;99.90
6260;DHT22;3163;51.516;4.000;2023-01-29T01:29:20;7.70;99.90
6260;DHT22;3163;51.516;4.000;2023-01-29T01:31:46;7.70;99.90
6260;DHT22;3163;51.516;4.000;2023-01-29T01:34:11;7.60;99.90
6260;DHT22;3163;51.516;4.000;2023-01-29T01:36:37;7.70;99.90
6260;DHT22;3163;51.516;4.000;2023-01-29T01:39:03;7.70;99.90
6260;DHT22;3163;51.516;4.000;2023-01-29T01:41:29;7.70;99.90
6260;DHT22;3163;51.516;4.000;2023-01-29T01:43:59;7.70;99.90
6260;DHT22;3163;51.516;4.000;2023-01-29T01:46:31;7.70;99.90
6260;DHT22;3163;51.516;4.000;2023-01-29T01:49:12;7.60;99.90
6260;DHT22;3163;51.516;4.000;2023-01-29T01:51:45;7.50;99.90
6260;DHT22;3163;51.516;4.000;2023-01-29T01:54:14;7.50;99.90
6260;DHT22;3163;51.516;4.000;2023-01-29T01:56:45;7.50;99.90
6260;DHT22;3163;51.516;4.000;2023-01-29T01:59:15;7.50;99.90
6260;DHT22;3163;51.516;4.000;2023-01-29T02:01:43;7.50;99.90
6260;DHT22;3163;51.516;4.000;2023-01-29T02:04:17;7.60;99.90
6260;DHT22;3163;51.516;4.000;2023-01-29T02:07:04;7.70;99.90
6260;DHT22;3163;51.516;4.000;2023-01-29T02:10:07;7.70;99.90
6260;DHT22;3163;51.516;4.000;2023-01-29T02:12:35;7.70;99.90
6260;DHT22;3163;51.516;4.000;2023-01-29T02:15:01;7.60;99.90
6260;DHT22;3163;51.516;4.000;2023-01-29T02:17:27;7.60;99.90
6260;DHT22;3163;51.516;4.000;2023-01-29T02:29:03;7.60;99.90
6260;DHT22;3163;51.516;4.000;2023-01-29T02:34:35;7.50;99.90
6260;DHT22;3163;51.516;4.000;2023-01-29T02:37:25;7.50;99.90
6260;DHT22;3163;51.516;4.000;2023-01-29T02:40:18;7.40;99.90
6260;DHT22;3163;51.516;4.000;2023-01-29T02:43:03;7.50;99.90
6260;DHT22;3163;51.516;4.000;2023-01-29T02:45:36;7.60;99.90
6260;DHT22;3163;51.516;4.000;2023-01-29T02:48:08;7.50;99.90
6260;DHT22;3163;51.516;4.000;2023-01-29T02:53:32;7.60;99.90
6260;DHT22;3163;51.516;4.000;2023-01-29T02:56:22;7.50;99.90
6260;DHT22;3163;51.516;4.000;2023-01-29T02:58:57;7.50;99.90
6260;DHT22;3163;51.516;4.000;2023-01-29T03:01:35;7.50;99.90
6260;DHT22;3163;51.516;4.000;2023-01-29T03:04:09;7.40;99.90
6260;DHT22;3163;51.516;4.000;2023-01-29T03:06:44;7.50;99.90
6260;DHT22;3163;51.516;4.000;2023-01-29T03:09:20;7.40;99.90
6260;DHT22;3163;51.516;4.000;2023-01-29T03:11:50;7.40;99.90
6260;DHT22;3163;51.516;4.000;2023-01-29T03:14:32;7.40;99.90
6260;DHT22;3163;51.516;4.000;2023-01-29T03:17:20;7.40;99.90
6260;DHT22;3163;51.516;4.000;2023-01-29T03:19:50;7.40;99.90
6260;DHT22;3163;51.516;4.000;2023-01-29T03:22:16;7.30;99.90
6260;DHT22;3163;51.516;4.000;2023-01-29T03:24:56;7.40;99.90
6260;DHT22;3163;51.516;4.000;2023-01-29T03:27:47;7.40;99.90
6260;DHT22;3163;51.516;4.000;2023-01-29T03:30:35;7.40;99.90
6260;DHT22;3163;51.516;4.000;2023-01-29T03:33:22;7.30;99.90
6260;DHT22;3163;51.516;4.000;2023-01-29T03:35:55;7.20;99.90
6260;DHT22;3163;51.516;4.000;2023-01-29T03:38:25;7.20;99.90
6260;DHT22;3163;51.516;4.000;2023-01-29T03:43:56;7.30;99.90
6260;DHT22;3163;51.516;4.000;2023-01-29T03:46:31;7.30;99.90
6260;DHT22;3163;51.516;4.000;2023-01-29T03:51:59;7.30;99.90
6260;DHT22;3163;51.516;4.000;2023-01-29T03:57:35;7.40;99.90
6260;DHT22;3163;51.516;4.000;2023-01-29T04:00:13;7.40;99.90
6260;DHT22;3163;51.516;4.000;2023-01-29T04:03:20;7.40;99.90
6260;DHT22;3163;51.516;4.000;2023-01-29T04:06:15;7.40;99.90
6260;DHT22;3163;51.516;4.000;2023-01-29T04:08:56;7.40;99.90
6260;DHT22;3163;51.516;4.000;2023-01-29T04:11:24;7.40;99.90
6260;DHT22;3163;51.516;4.000;2023-01-29T04:13:50;7.40;99.90
6260;DHT22;3163;51.516;4.000;2023-01-29T04:16:33;7.40;99.90
6260;DHT22;3163;51.516;4.000;2023-01-29T04:19:00;7.30;99.90
6260;DHT22;3163;51.516;4.000;2023-01-29T04:21:26;7.30;99.90
6260;DHT22;3163;51.516;4.000;2023-01-29T04:23:52;7.30;99.90
6260;DHT22;3163;51.516;4.000;2023-01-29T04:29:28;7.40;99.90
6260;DHT22;3163;51.516;4.000;2023-01-29T04:35:08;7.30;99.90
6260;DHT22;3163;51.516;4.000;2023-01-29T04:37:52;7.30;99.90
6260;DHT22;3163;51.516;4.000;2023-01-29T04:40:32;7.30;99.90
6260;DHT22;3163;51.516;4.000;2023-01-29T04:46:17;7.40;99.90
6260;DHT22;3163;51.516;4.000;2023-01-29T04:49:01;7.40;99.90
6260;DHT22;3163;51.516;4.000;2023-01-29T04:51:47;7.40;99.90
6260;DHT22;3163;51.516;4.000;2023-01-29T05:00:40;7.50;99.90
6260;DHT22;3163;51.516;4.000;2023-01-29T05:03:05;7.50;99.90
6260;DHT22;3163;51.516;4.000;2023-01-29T05:05:35;7.50;99.90
6260;DHT22;3163;51.516;4.000;2023-01-29T05:08:02;7.60;99.90
6260;DHT22;3163;51.516;4.000;2023-01-29T05:10:28;7.50;99.90
6260;DHT22;3163;51.516;4.000;2023-01-29T05:13:02;7.50;99.90
6260;DHT22;3163;51.516;4.000;2023-01-29T05:15:53;7.50;99.90
6260;DHT22;3163;51.516;4.000;2023-01-29T05:18:20;7.50;99.90
6260;DHT22;3163;51.516;4.000;2023-01-29T05:20:46;7.40;99.90
6260;DHT22;3163;51.516;4.000;2023-01-29T05:23:16;7.40;99.90
6260;DHT22;3163;51.516;4.000;2023-01-29T05:25:42;7.40;99.90
6260;DHT22;3163;51.516;4.000;2023-01-29T05:28:08;7.40;99.90
6260;DHT22;3163;51.516;4.000;2023-01-29T05:30:48;7.40;99.90
6260;DHT22;3163;51.516;4.000;2023-01-29T05:33:16;7.40;99.90
6260;DHT22;3163;51.516;4.000;2023-01-29T05:35:43;7.40;99.90
6260;DHT22;3163;51.516;4.000;2023-01-29T05:38:09;7.40;99.90
6260;DHT22;3163;51.516;4.000;2023-01-29T05:40:36;7.40;99.90
6260;DHT22;3163;51.516;4.000;2023-01-29T05:43:01;7.30;99.90
6260;DHT22;3163;51.516;4.000;2023-01-29T05:45:27;7.30;99.90
6260;DHT22;3163;51.516;4.000;2023-01-29T05:47:59;7.40;99.90
6260;DHT22;3163;51.516;4.000;2023-01-29T05:50:26;7.30;99.90
6260;DHT22;3163;51.516;4.000;2023-01-29T05:52:56;7.30;99.90
6260;DHT22;3163;51.516;4.000;2023-01-29T05:55:22;7.30;99.90
6260;DHT22;3163;51.516;4.000;2023-01-29T05:57:47;7.20;99.90
6260;DHT22;3163;51.516;4.000;2023-01-29T06:00:13;7.30;99.90
6260;DHT22;3163;51.516;4.000;2023-01-29T06:02:39;7.30;99.90
6260;DHT22;3163;51.516;4.000;2023-01-29T06:05:05;7.30;99.90
6260;DHT22;3163;51.516;4.000;2023-01-29T06:07:31;7.40;99.90
6260;DHT22;3163;51.516;4.000;2023-01-29T06:09:57;7.50;99.90
6260;DHT22;3163;51.516;4.000;2023-01-29T06:12:22;7.50;99.90
6260;DHT22;3163;51.516;4.000;2023-01-29T06:14:48;7.50;99.90
6260;DHT22;3163;51.516;4.000;2023-01-29T06:17:13;7.50;99.90
6260;DHT22;3163;51.516;4.000;2023-01-29T06:19:39;7.50;99.90
6260;DHT22;3163;51.516;4.000;2023-01-29T06:22:05;7.50;99.90
6260;DHT22;3163;51.516;4.000;2023-01-29T06:24:30;7.50;99.90
6260;DHT22;3163;51.516;4.000;2023-01-29T06:26:57;7.40;99.90
6260;DHT22;3163;51.516;4.000;2023-01-29T06:29:23;7.40;99.90
6260;DHT22;3163;51.516;4.000;2023-01-29T06:31:48;7.40;99.90
6260;DHT22;3163;51.516;4.000;2023-01-29T06:34:14;7.40;99.90
6260;DHT22;3163;51.516;4.000;2023-01-29T06:36:39;7.40;99.90
6260;DHT22;3163;51.516;4.000;2023-01-29T06:39:06;7.40;99.90
6260;DHT22;3163;51.516;4.000;2023-01-29T06:41:31;7.30;99.90
6260;DHT22;3163;51.516;4.000;2023-01-29T06:43:57;7.40;99.90
6260;DHT22;3163;51.516;4.000;2023-01-29T06:46:23;7.30;99.90
6260;DHT22;3163;51.516;4.000;2023-01-29T06:48:48;7.30;99.90
6260;DHT22;3163;51.516;4.000;2023-01-29T06:51:14;7.30;99.90
6260;DHT22;3163;51.516;4.000;2023-01-29T06:53:39;7.30;99.90
6260;DHT22;3163;51.516;4.000;2023-01-29T06:56:05;7.40;99.90
6260;DHT22;3163;51.516;4.000;2023-01-29T06:58:32;7.30;99.90
6260;DHT22;3163;51.516;4.000;2023-01-29T07:01:05;7.30;99.90
6260;DHT22;3163;51.516;4.000;2023-01-29T07:03:31;7.30;99.90
6260;DHT22;3163;51.516;4.000;2023-01-29T07:05:57;7.30;99.90
6260;DHT22;3163;51.516;4.000;2023-01-29T07:08:22;7.30;99.90
6260;DHT22;3163;51.516;4.000;2023-01-29T07:10:49;7.30;99.90
6260;DHT22;3163;51.516;4.000;2023-01-29T07:13:14;7.30;99.90
6260;DHT22;3163;51.516;4.000;2023-01-29T07:15:40;7.20;99.90
6260;DHT22;3163;51.516;4.000;2023-01-29T07:18:07;7.20;99.90
6260;DHT22;3163;51.516;4.000;2023-01-29T07:20:38;7.30;99.90
6260;DHT22;3163;51.516;4.000;2023-01-29T07:23:04;7.30;99.90
6260;DHT22;3163;51.516;4.000;2023-01-29T07:25:31;7.30;99.90
6260;DHT22;3163;51.516;4.000;2023-01-29T07:27:59;7.40;99.90
6260;DHT22;3163;51.516;4.000;2023-01-29T07:30:25;7.40;99.90
6260;DHT22;3163;51.516;4.000;2023-01-29T07:32:50;7.40;99.90
6260;DHT22;3163;51.516;4.000;2023-01-29T07:35:16;7.40;99.90
6260;DHT22;3163;51.516;4.000;2023-01-29T07:37:42;7.30;99.90
6260;DHT22;3163;51.516;4.000;2023-01-29T07:40:08;7.40;99.90
6260;DHT22;3163;51.516;4.000;2023-01-29T07:42:36;7.40;99.90
6260;DHT22;3163;51.516;4.000;2023-01-29T07:45:04;7.30;99.90
6260;DHT22;3163;51.516;4.000;2023-01-29T07:47:29;7.30;99.90
6260;DHT22;3163;51.516;4.000;2023-01-29T07:49:55;7.30;99.90
6260;DHT22;3163;51.516;4.000;2023-01-29T07:52:21;7.30;99.90
6260;DHT22;3163;51.516;4.000;2023-01-29T07:54:46;7.30;99.90
6260;DHT22;3163;51.516;4.000;2023-01-29T07:57:12;7.30;99.90
6260;DHT22;3163;51.516;4.000;2023-01-29T07:59:37;7.30;99.90
6260;DHT22;3163;51.516;4.000;2023-01-29T08:02:03;7.30;99.90
6260;DHT22;3163;51.516;4.000;2023-01-29T08:04:29;7.30;99.90
6260;DHT22;3163;51.516;4.000;2023-01-29T08:06:54;7.30;99.90
6260;DHT22;3163;51.516;4.000;2023-01-29T08:09:20;7.30;99.90
6260;DHT22;3163;51.516;4.000;2023-01-29T08:11:45;7.40;99.90
6260;DHT22;3163;51.516;4.000;2023-01-29T08:14:11;7.30;99.90
6260;DHT22;3163;51.516;4.000;2023-01-29T08:16:36;7.40;99.90
6260;DHT22;3163;51.516;4.000;2023-01-29T08:19:02;7.40;99.90
6260;DHT22;3163;51.516;4.000;2023-01-29T08:21:28;7.40;99.90
6260;DHT22;3163;51.516;4.000;2023-01-29T08:23:53;7.40;99.90
6260;DHT22;3163;51.516;4.000;2023-01-29T08:26:19;7.40;99.90
6260;DHT22;3163;51.516;4.000;2023-01-29T08:28:45;7.40;99.90
6260;DHT22;3163;51.516;4.000;2023-01-29T08:31:18;7.50;99.90
6260;DHT22;3163;51.516;4.000;2023-01-29T08:33:47;7.50;99.90
6260;DHT22;3163;51.516;4.000;2023-01-29T08:36:12;7.60;99.90
6260;DHT22;3163;51.516;4.000;2023-01-29T08:38:38;7.60;99.90
6260;DHT22;3163;51.516;4.000;2023-01-29T08:41:04;7.70;99.90
6260;DHT22;3163;51.516;4.000;2023-01-29T08:43:30;7.60;99.90
6260;DHT22;3163;51.516;4.000;2023-01-29T08:45:56;7.60;99.90
6260;DHT22;3163;51.516;4.000;2023-01-29T08:48:22;7.60;99.90
6260;DHT22;3163;51.516;4.000;2023-01-29T08:50:48;7.70;99.90
6260;DHT22;3163;51.516;4.000;2023-01-29T08:53:14;7.60;99.90
6260;DHT22;3163;51.516;4.000;2023-01-29T08:55:40;7.70;99.90
6260;DHT22;3163;51.516;4.000;2023-01-29T08:58:07;7.70;99.90
6260;DHT22;3163;51.516;4.000;2023-01-29T09:00:34;7.60;99.90
6260;DHT22;3163;51.516;4.000;2023-01-29T09:03:00;7.70;99.90
6260;DHT22;3163;51.516;4.000;2023-01-29T09:05:26;7.80;99.90
6260;DHT22;3163;51.516;4.000;2023-01-29T09:07:53;7.70;99.90
6260;DHT22;3163;51.516;4.000;2023-01-29T09:10:19;7.80;99.90
6260;DHT22;3163;51.516;4.000;2023-01-29T09:12:44;7.80;99.90
6260;DHT22;3163;51.516;4.000;2023-01-29T09:15:10;7.80;99.90
6260;DHT22;3163;51.516;4.000;2023-01-29T09:17:36;7.80;99.90
6260;DHT22;3163;51.516;4.000;2023-01-29T09:20:02;7.90;99.90
6260;DHT22;3163;51.516;4.000;2023-01-29T09:22:30;7.90;99.90
6260;DHT22;3163;51.516;4.000;2023-01-29T09:24:56;8.00;99.90
6260;DHT22;3163;51.516;4.000;2023-01-29T09:27:21;8.00;99.90
6260;DHT22;3163;51.516;4.000;2023-01-29T09:29:47;8.10;99.90
6260;DHT22;3163;51.516;4.000;2023-01-29T09:32:13;8.10;99.90
6260;DHT22;3163;51.516;4.000;2023-01-29T09:34:38;8.00;99.90
6260;DHT22;3163;51.516;4.000;2023-01-29T09:37:04;8.10;99.90
6260;DHT22;3163;51.516;4.000;2023-01-29T09:39:29;8.00;99.90
6260;DHT22;3163;51.516;4.000;2023-01-29T09:45:12;8.10;99.90
6260;DHT22;3163;51.516;4.000;2023-01-29T09:47:39;8.20;99.90
6260;DHT22;3163;51.516;4.000;2023-01-29T09:50:18;8.20;99.90
6260;DHT22;3163;51.516;4.000;2023-01-29T09:53:04;8.20;99.90
6260;DHT22;3163;51.516;4.000;2023-01-29T09:55:49;8.20;99.90
6260;DHT22;3163;51.516;4.000;2023-01-29T09:58:32;8.20;99.90
6260;DHT22;3163;51.516;4.000;2023-01-29T10:14:46;8.40;99.90
6260;DHT22;3163;51.516;4.000;2023-01-29T10:20:31;8.40;99.90
6260;DHT22;3163;51.516;4.000;2023-01-29T10:25:26;8.40;99.90
6260;DHT22;3163;51.516;4.000;2023-01-29T10:27:55;8.40;99.90
6260;DHT22;3163;51.516;4.000;2023-01-29T10:30:38;8.40;99.90
6260;DHT22;3163;51.516;4.000;2023-01-29T10:33:12;8.50;99.90
6260;DHT22;3163;51.516;4.000;2023-01-29T10:35:43;8.60;99.90
6260;DHT22;3163;51.516;4.000;2023-01-29T10:41:04;8.70;99.90
6260;DHT22;3163;51.516;4.000;2023-01-29T10:43:44;8.70;99.90
6260;DHT22;3163;51.516;4.000;2023-01-29T10:57:27;8.70;99.90
6260;DHT22;3163;51.516;4.000;2023-01-29T11:00:16;8.70;99.90
6260;DHT22;3163;51.516;4.000;2023-01-29T11:02:44;8.70;99.90
6260;DHT22;3163;51.516;4.000;2023-01-29T11:08:11;8.60;99.90
6260;DHT22;3163;51.516;4.000;2023-01-29T11:10:49;8.70;99.90
6260;DHT22;3163;51.516;4.000;2023-01-29T11:13:17;8.70;99.90
6260;DHT22;3163;51.516;4.000;2023-01-29T11:15:43;8.70;99.90
6260;DHT22;3163;51.516;4.000;2023-01-29T11:18:13;8.70;99.90
6260;DHT22;3163;51.516;4.000;2023-01-29T11:20:41;8.70;99.90
6260;DHT22;3163;51.516;4.000;2023-01-29T11:23:28;8.70;99.90
6260;DHT22;3163;51.516;4.000;2023-01-29T11:25:55;8.80;99.90
6260;DHT22;3163;51.516;4.000;2023-01-29T11:28:54;8.80;99.90
6260;DHT22;3163;51.516;4.000;2023-01-29T11:31:23;8.70;99.90
6260;DHT22;3163;51.516;4.000;2023-01-29T11:33:53;8.70;99.90
6260;DHT22;3163;51.516;4.000;2023-01-29T11:36:36;8.80;99.90
6260;DHT22;3163;51.516;4.000;2023-01-29T11:39:21;8.80;99.90
6260;DHT22;3163;51.516;4.000;2023-01-29T11:41:56;8.80;99.90
6260;DHT22;3163;51.516;4.000;2023-01-29T11:44:27;8.80;99.90
6260;DHT22;3163;51.516;4.000;2023-01-29T11:46:54;8.80;99.90
6260;DHT22;3163;51.516;4.000;2023-01-29T11:51:54;8.90;99.90
6260;DHT22;3163;51.516;4.000;2023-01-29T11:54:24;8.80;99.90
6260;DHT22;3163;51.516;4.000;2023-01-29T11:56:51;8.90;99.90
6260;DHT22;3163;51.516;4.000;2023-01-29T12:01:48;8.80;99.90
6260;DHT22;3163;51.516;4.000;2023-01-29T12:04:23;8.90;99.90
6260;DHT22;3163;51.516;4.000;2023-01-29T12:06:51;8.90;99.90
6260;DHT22;3163;51.516;4.000;2023-01-29T12:09:23;8.80;99.90
6260;DHT22;3163;51.516;4.000;2023-01-29T12:11:50;8.80;99.90
6260;DHT22;3163;51.516;4.000;2023-01-29T12:14:27;8.90;99.90
6260;DHT22;3163;51.516;4.000;2023-01-29T12:19:47;8.60;99.90
6260;DHT22;3163;51.516;4.000;2023-01-29T12:22:21;8.70;99.90
6260;DHT22;3163;51.516;4.000;2023-01-29T12:25:17;8.70;99.90
6260;DHT22;3163;51.516;4.000;2023-01-29T12:28:06;8.70;99.90
6260;DHT22;3163;51.516;4.000;2023-01-29T12:36:00;8.80;99.90
6260;DHT22;3163;51.516;4.000;2023-01-29T12:38:27;8.80;99.90
6260;DHT22;3163;51.516;4.000;2023-01-29T12:41:03;8.80;99.90
6260;DHT22;3163;51.516;4.000;2023-01-29T12:43:37;8.80;99.90
6260;DHT22;3163;51.516;4.000;2023-01-29T12:46:12;8.90;99.90
6260;DHT22;3163;51.516;4.000;2023-01-29T12:48:41;8.80;99.90
6260;DHT22;3163;51.516;4.000;2023-01-29T12:51:16;8.90;99.90
6260;DHT22;3163;51.516;4.000;2023-01-29T12:53:49;8.90;99.90
6260;DHT22;3163;51.516;4.000;2023-01-29T12:56:26;8.90;99.90
6260;DHT22;3163;51.516;4.000;2023-01-29T12:58:55;8.90;99.90
6260;DHT22;3163;51.516;4.000;2023-01-29T13:01:32;8.80;99.90
6260;DHT22;3163;51.516;4.000;2023-01-29T13:04:00;8.90;99.90
6260;DHT22;3163;51.516;4.000;2023-01-29T13:06:41;8.90;99.90
6260;DHT22;3163;51.516;4.000;2023-01-29T13:09:13;8.80;99.90
6260;DHT22;3163;51.516;4.000;2023-01-29T13:11:52;8.80;99.90
6260;DHT22;3163;51.516;4.000;2023-01-29T13:14:21;8.80;99.90
6260;DHT22;3163;51.516;4.000;2023-01-29T13:16:53;8.90;99.90
6260;DHT22;3163;51.516;4.000;2023-01-29T13:19:48;8.80;99.90
6260;DHT22;3163;51.516;4.000;2023-01-29T13:22:28;8.90;99.90
6260;DHT22;3163;51.516;4.000;2023-01-29T13:24:56;8.90;99.90
6260;DHT22;3163;51.516;4.000;2023-01-29T13:27:27;8.90;99.90
6260;DHT22;3163;51.516;4.000;2023-01-29T13:29:55;8.90;99.90
6260;DHT22;3163;51.516;4.000;2023-01-29T13:32:29;8.80;99.90
6260;DHT22;3163;51.516;4.000;2023-01-29T13:34:58;8.70;99.90
6260;DHT22;3163;51.516;4.000;2023-01-29T13:37:30;8.70;99.90
6260;DHT22;3163;51.516;4.000;2023-01-29T13:39:57;8.70;99.90
6260;DHT22;3163;51.516;4.000;2023-01-29T13:42:43;8.70;99.90
6260;DHT22;3163;51.516;4.000;2023-01-29T13:47:47;8.70;99.90
6260;DHT22;3163;51.516;4.000;2023-01-29T13:52:59;8.90;99.90
6260;DHT22;3163;51.516;4.000;2023-01-29T13:55:37;8.80;99.90
6260;DHT22;3163;51.516;4.000;2023-01-29T13:58:04;8.80;99.90
6260;DHT22;3163;51.516;4.000;2023-01-29T14:05:40;8.80;99.90
6260;DHT22;3163;51.516;4.000;2023-01-29T14:10:41;8.90;99.90
6260;DHT22;3163;51.516;4.000;2023-01-29T14:15:43;8.90;99.90
6260;DHT22;3163;51.516;4.000;2023-01-29T14:18:18;8.80;99.90
6260;DHT22;3163;51.516;4.000;2023-01-29T14:20:58;8.80;99.90
6260;DHT22;3163;51.516;4.000;2023-01-29T14:23:29;8.80;99.90
6260;DHT22;3163;51.516;4.000;2023-01-29T14:25:56;8.90;99.90
6260;DHT22;3163;51.516;4.000;2023-01-29T14:28:25;8.90;99.90
6260;DHT22;3163;51.516;4.000;2023-01-29T14:30:52;8.90;99.90
6260;DHT22;3163;51.516;4.000;2023-01-29T14:33:39;8.80;99.90
6260;DHT22;3163;51.516;4.000;2023-01-29T14:36:10;8.90;99.90
6260;DHT22;3163;51.516;4.000;2023-01-29T14:38:37;8.90;99.90
6260;DHT22;3163;51.516;4.000;2023-01-29T14:43:42;8.90;99.90
6260;DHT22;3163;51.516;4.000;2023-01-29T14:49:00;8.70;99.90
6260;DHT22;3163;51.516;4.000;2023-01-29T14:51:26;8.70;99.90
6260;DHT22;3163;51.516;4.000;2023-01-29T14:54:03;8.70;99.90
6260;DHT22;3163;51.516;4.000;2023-01-29T14:56:35;8.70;99.90
6260;DHT22;3163;51.516;4.000;2023-01-29T14:59:25;8.70;99.90
6260;DHT22;3163;51.516;4.000;2023-01-29T15:01:54;8.70;99.90
6260;DHT22;3163;51.516;4.000;2023-01-29T15:04:42;8.70;99.90
6260;DHT22;3163;51.516;4.000;2023-01-29T15:09:51;8.80;99.90
6260;DHT22;3163;51.516;4.000;2023-01-29T15:12:28;8.80;99.90
6260;DHT22;3163;51.516;4.000;2023-01-29T15:18:00;8.80;99.90
6260;DHT22;3163;51.516;4.000;2023-01-29T15:20:37;8.80;99.90
6260;DHT22;3163;51.516;4.000;2023-01-29T15:23:16;8.80;99.90
6260;DHT22;3163;51.516;4.000;2023-01-29T15:25:50;8.70;99.90
6260;DHT22;3163;51.516;4.000;2023-01-29T15:28:16;8.80;99.90
6260;DHT22;3163;51.516;4.000;2023-01-29T15:30:42;8.80;99.90
6260;DHT22;3163;51.516;4.000;2023-01-29T15:33:10;8.70;99.90
6260;DHT22;3163;51.516;4.000;2023-01-29T15:35:40;8.70;99.90
6260;DHT22;3163;51.516;4.000;2023-01-29T15:38:18;8.70;99.90
6260;DHT22;3163;51.516;4.000;2023-01-29T15:40:59;8.70;99.90
6260;DHT22;3163;51.516;4.000;2023-01-29T15:43:30;8.70;99.90
6260;DHT22;3163;51.516;4.000;2023-01-29T15:46:00;8.70;99.90
6260;DHT22;3163;51.516;4.000;2023-01-29T15:48:46;8.70;99.90
6260;DHT22;3163;51.516;4.000;2023-01-29T15:51:21;8.80;99.90
6260;DHT22;3163;51.516;4.000;2023-01-29T15:53:59;8.80;99.90
6260;DHT22;3163;51.516;4.000;2023-01-29T15:58:59;8.70;99.90
6260;DHT22;3163;51.516;4.000;2023-01-29T16:01:28;8.80;99.90
6260;DHT22;3163;51.516;4.000;2023-01-29T16:03:54;8.70;99.90
6260;DHT22;3163;51.516;4.000;2023-01-29T16:06:22;8.60;99.90
6260;DHT22;3163;51.516;4.000;2023-01-29T16:08:52;8.70;99.90
6260;DHT22;3163;51.516;4.000;2023-01-29T16:11:19;8.50;99.90
6260;DHT22;3163;51.516;4.000;2023-01-29T16:13:47;8.60;99.90
6260;DHT22;3163;51.516;4.000;2023-01-29T16:16:22;8.60;99.90
6260;DHT22;3163;51.516;4.000;2023-01-29T16:18:49;8.60;99.90
6260;DHT22;3163;51.516;4.000;2023-01-29T16:24:08;8.60;99.90
6260;DHT22;3163;51.516;4.000;2023-01-29T16:26:44;8.60;99.90
6260;DHT22;3163;51.516;4.000;2023-01-29T16:29:14;8.60;99.90
6260;DHT22;3163;51.516;4.000;2023-01-29T16:31:43;8.70;99.90
6260;DHT22;3163;51.516;4.000;2023-01-29T16:34:23;8.70;99.90
6260;DHT22;3163;51.516;4.000;2023-01-29T16:36:50;8.70;99.90
6260;DHT22;3163;51.516;4.000;2023-01-29T16:39:22;8.70;99.90
6260;DHT22;3163;51.516;4.000;2023-01-29T16:44:36;8.60;99.90
6260;DHT22;3163;51.516;4.000;2023-01-29T16:47:15;8.70;99.90
6260;DHT22;3163;51.516;4.000;2023-01-29T16:49:49;8.70;99.90
6260;DHT22;3163;51.516;4.000;2023-01-29T16:52:33;8.70;99.90
6260;DHT22;3163;51.516;4.000;2023-01-29T16:57:39;8.60;99.90
6260;DHT22;3163;51.516;4.000;2023-01-29T17:00:07;8.60;99.90
6260;DHT22;3163;51.516;4.000;2023-01-29T17:02:38;8.60;99.90
6260;DHT22;3163;51.516;4.000;2023-01-29T17:05:07;8.60;99.90
6260;DHT22;3163;51.516;4.000;2023-01-29T17:07:34;8.50;99.90
6260;DHT22;3163;51.516;4.000;2023-01-29T17:10:03;8.50;99.90
6260;DHT22;3163;51.516;4.000;2023-01-29T17:12:30;8.40;99.90
6260;DHT22;3163;51.516;4.000;2023-01-29T17:15:59;8.40;99.90
6260;DHT22;3163;51.516;4.000;2023-01-29T17:18:19;8.30;99.90
6260;DHT22;3163;51.516;4.000;2023-01-29T17:20:45;8.30;99.90
6260;DHT22;3163;51.516;4.000;2023-01-29T17:23:11;8.20;99.90
6260;DHT22;3163;51.516;4.000;2023-01-29T17:25:37;8.20;99.90
6260;DHT22;3163;51.516;4.000;2023-01-29T17:28:02;8.20;99.90
6260;DHT22;3163;51.516;4.000;2023-01-29T17:30:31;8.10;99.90
6260;DHT22;3163;51.516;4.000;2023-01-29T17:32:59;8.10;99.90
6260;DHT22;3163;51.516;4.000;2023-01-29T17:35:27;8.00;99.90
6260;DHT22;3163;51.516;4.000;2023-01-29T17:37:53;8.00;99.90
6260;DHT22;3163;51.516;4.000;2023-01-29T17:40:41;8.00;99.90
6260;DHT22;3163;51.516;4.000;2023-01-29T17:43:08;8.00;99.90
6260;DHT22;3163;51.516;4.000;2023-01-29T17:45:36;8.00;99.90
6260;DHT22;3163;51.516;4.000;2023-01-29T17:48:03;8.00;99.90
6260;DHT22;3163;51.516;4.000;2023-01-29T17:50:30;8.00;99.90
6260;DHT22;3163;51.516;4.000;2023-01-29T17:52:56;8.00;99.90
6260;DHT22;3163;51.516;4.000;2023-01-29T17:55:22;7.90;99.90
6260;DHT22;3163;51.516;4.000;2023-01-29T17:57:48;7.80;99.90
6260;DHT22;3163;51.516;4.000;2023-01-29T18:00:18;7.90;99.90
6260;DHT22;3163;51.516;4.000;2023-01-29T18:02:44;7.80;99.90
6260;DHT22;3163;51.516;4.000;2023-01-29T18:05:11;7.90;99.90
6260;DHT22;3163;51.516;4.000;2023-01-29T18:07:37;7.80;99.90
6260;DHT22;3163;51.516;4.000;2023-01-29T18:10:05;7.80;99.90
6260;DHT22;3163;51.516;4.000;2023-01-29T18:12:31;7.80;99.90
6260;DHT22;3163;51.516;4.000;2023-01-29T18:14:56;7.70;99.90
6260;DHT22;3163;51.516;4.000;2023-01-29T18:17:22;7.70;99.90
6260;DHT22;3163;51.516;4.000;2023-01-29T18:19:48;7.80;99.90
6260;DHT22;3163;51.516;4.000;2023-01-29T18:22:14;7.80;99.90
6260;DHT22;3163;51.516;4.000;2023-01-29T18:24:40;7.70;99.90
6260;DHT22;3163;51.516;4.000;2023-01-29T18:27:05;7.70;99.90
6260;DHT22;3163;51.516;4.000;2023-01-29T18:29:31;7.60;99.90
6260;DHT22;3163;51.516;4.000;2023-01-29T18:31:57;7.60;99.90
6260;DHT22;3163;51.516;4.000;2023-01-29T18:34:22;7.60;99.90
6260;DHT22;3163;51.516;4.000;2023-01-29T18:36:48;7.60;99.90
6260;DHT22;3163;51.516;4.000;2023-01-29T18:39:15;7.60;99.90
6260;DHT22;3163;51.516;4.000;2023-01-29T18:41:41;7.60;99.90
6260;DHT22;3163;51.516;4.000;2023-01-29T18:44:06;7.60;99.90
6260;DHT22;3163;51.516;4.000;2023-01-29T18:46:34;7.60;99.90
6260;DHT22;3163;51.516;4.000;2023-01-29T18:48:59;7.60;99.90
6260;DHT22;3163;51.516;4.000;2023-01-29T18:51:25;7.60;99.90